createdAt,value
2016-03-14T10:12:53.049Z,71.9
2016-03-14T10:13:52.771Z,72.37
2016-03-14T10:14:52.758Z,72.94
2016-03-14T10:15:52.791Z,74.36
2016-03-14T10:16:52.794Z,72.85
2016-03-14T10:17:53.546Z,71.99
2016-03-14T10:18:52.815Z,71.42
2016-03-14T10:19:52.787Z,70.95
2016-03-14T10:20:52.679Z,72.75
2016-03-14T10:22:09.418Z,69.25
2016-03-14T10:23:52.860Z,69.72
2016-03-14T10:24:52.800Z,69.44
2016-03-14T10:25:52.724Z,69.15
2016-03-14T10:26:52.681Z,70.29
2016-03-14T10:27:52.698Z,69.44
2016-03-14T10:28:52.702Z,70.95
2016-03-14T10:29:52.782Z,69.72
2016-03-14T10:30:52.645Z,71.33
2016-03-14T10:31:52.631Z,71.17
2016-03-14T10:32:52.900Z,69
2016-03-14T10:33:52.575Z,67.93
2016-03-14T10:34:52.624Z,69.44
2016-03-14T10:35:52.580Z,72.31
2016-03-14T10:36:52.582Z,73.35
2016-03-14T10:38:23.338Z,70.98
2016-03-14T10:38:52.603Z,69.85
2016-03-14T10:39:52.575Z,71.17
2016-03-14T10:40:52.530Z,71.46
2016-03-14T10:41:52.924Z,68.15
2016-03-14T10:42:52.505Z,66.82
2016-03-14T10:43:52.570Z,67.3
2016-03-14T10:44:52.510Z,67.3
2016-03-14T10:45:52.482Z,69.57
2016-03-14T10:46:53.188Z,70.23
2016-03-14T10:47:52.627Z,69
2016-03-14T10:48:52.521Z,67.86
2016-03-14T10:49:52.461Z,69.47
2016-03-14T10:50:52.432Z,67.58
2016-03-14T10:51:52.404Z,69.09
2016-03-14T10:52:52.484Z,67.68
2016-03-14T10:53:52.659Z,66.82
2016-03-14T10:54:52.396Z,67.3
2016-03-14T10:55:52.398Z,67.86
2016-03-14T10:56:52.324Z,67.86
2016-03-14T10:57:52.342Z,68.24
2016-03-14T10:58:52.345Z,68.05
2016-03-14T11:00:00.815Z,67.3
2016-03-14T11:00:52.304Z,69.28
2016-03-14T11:01:52.401Z,69.66
2016-03-14T11:02:52.309Z,69.57
2016-03-14T11:03:52.312Z,68.33
2016-03-14T11:04:52.143Z,67.96
2016-03-14T11:05:52.224Z,69
2016-03-14T11:06:52.242Z,69.57
2016-03-14T11:07:52.323Z,68.15
2016-03-14T11:08:52.248Z,69.09
2016-03-14T11:09:52.203Z,71.08
2016-03-14T11:10:52.206Z,70.23
2016-03-14T11:11:52.177Z,68.24
2016-03-14T11:12:52.195Z,68.65
2016-03-14T11:13:52.167Z,69.32
2016-03-14T11:14:52.154Z,69.32
2016-03-14T11:15:51.970Z,69.13
2016-03-14T11:16:52.128Z,69.41
2016-03-14T11:17:52.240Z,69.57
2016-03-14T11:18:52.117Z,70.64
2016-03-14T11:19:52.136Z,69.7
2016-03-14T11:20:52.139Z,67.33
2016-03-14T11:21:52.098Z,66.86
2016-03-14T11:22:52.085Z,68.46
2016-03-14T11:23:52.305Z,69.32
2016-03-14T11:24:52.058Z,69.13
2016-03-14T11:25:52.093Z,66.82
2016-03-14T11:26:52.049Z,66.53
2016-03-14T11:27:52.019Z,67.3
2016-03-14T11:28:52.022Z,68.56
2016-03-14T11:29:52.088Z,68.05
2016-03-14T11:30:52.012Z,68.84
2016-03-14T11:31:51.969Z,68.08
2016-03-14T11:32:52.033Z,68.27
2016-03-14T11:33:52.083Z,68.65
2016-03-14T11:35:00.805Z,69.89
2016-03-14T11:35:51.995Z,68.27
2016-03-14T11:36:51.982Z,69.51
2016-03-14T11:37:51.953Z,68.18
2016-03-14T11:38:51.909Z,66.67
2016-03-14T11:39:52.037Z,67.14
2016-03-14T11:40:51.914Z,65.91
2016-03-14T11:41:51.965Z,66.67
2016-03-14T11:42:51.967Z,66.67
2016-03-14T11:43:51.844Z,66.57
2016-03-14T11:44:52.565Z,66.86
2016-03-14T11:45:51.850Z,65.91
2016-03-14T11:46:51.821Z,65.34
2016-03-14T11:47:51.808Z,65.53
2016-03-14T11:48:52.264Z,65.53
2016-03-14T11:50:51.786Z,66.67
2016-03-14T11:51:51.647Z,67.61
2016-03-14T11:53:08.400Z,68.18
2016-03-14T11:53:51.714Z,68.27
2016-03-14T11:54:51.742Z,66.57
2016-03-14T11:55:51.689Z,66.95
2016-03-14T11:56:51.728Z,67.52
2016-03-14T11:57:51.674Z,65.63
2016-03-14T11:58:51.610Z,66.28
2016-03-14T11:59:51.701Z,65.91
2016-03-14T12:00:51.622Z,65.53
2016-03-14T12:02:51.807Z,65.47
2016-03-14T12:03:51.525Z,64.42
2016-03-14T12:04:51.589Z,65
2016-03-14T12:05:51.543Z,63.95
2016-03-14T12:06:51.545Z,65.19
2016-03-14T12:07:51.531Z,66.41
2016-03-14T12:08:51.548Z,65.66
2016-03-14T12:09:51.503Z,64.23
2016-03-14T12:10:51.521Z,65.78
2016-03-14T12:11:51.523Z,62.75
2016-03-14T12:12:51.323Z,61.8
2016-03-14T12:13:51.371Z,60.28
2016-03-14T12:14:51.484Z,61.11
2016-03-14T12:15:51.439Z,62.62
2016-03-14T12:16:51.426Z,63.67
2016-03-14T12:17:51.428Z,62.62
2016-03-14T12:18:51.430Z,63.6
2016-03-14T12:19:51.605Z,62.56
2016-03-14T12:20:51.404Z,61.87
2016-03-14T12:21:51.360Z,60.95
2016-03-14T12:22:51.409Z,61.52
2016-03-14T12:23:51.382Z,62.56
2016-03-14T12:24:51.415Z,63.6
2016-03-14T12:25:58.121Z,62.85
2016-03-14T12:26:51.217Z,61.14
2016-03-14T12:27:51.345Z,61.24
2016-03-14T12:28:51.315Z,63.95
2016-03-14T12:29:51.319Z,64.14
2016-03-14T12:30:51.307Z,63.29
2016-03-14T12:31:51.090Z,64.52
2016-03-14T12:32:51.296Z,63.95
2016-03-14T12:33:51.251Z,64.14
2016-03-14T12:34:51.520Z,65.19
2016-03-14T12:35:51.241Z,64.52
2016-03-14T12:36:51.260Z,64.9
2016-03-14T12:37:51.325Z,64.52
2016-03-14T12:38:51.218Z,65.28
2016-03-14T12:39:51.221Z,66.22
2016-03-14T12:40:51.209Z,66.28
2016-03-14T12:41:51.523Z,65.94
2016-03-14T12:42:51.183Z,65.72
2016-03-14T12:43:51.153Z,66.09
2016-03-14T12:44:51.156Z,66.67
2016-03-14T12:45:51.643Z,66.7
2016-03-14T12:46:51.130Z,66.41
2016-03-14T12:47:51.133Z,64.33
2016-03-14T12:48:51.135Z,64.42
2016-03-14T12:49:51.341Z,64.71
2016-03-14T12:50:51.219Z,64.14
2016-03-14T12:51:51.097Z,63.85
2016-03-14T12:52:51.052Z,62.82
2016-03-14T12:53:51.072Z,63.95
2016-03-14T12:54:51.058Z,64.58
2016-03-14T12:55:51.013Z,65.81
2016-03-14T12:56:51.049Z,65.72
2016-03-14T12:57:51.035Z,65.15
2016-03-14T12:59:51.009Z,66.86
2016-03-14T13:00:50.996Z,66.76
2016-03-14T13:01:51.217Z,68.46
2016-03-14T13:02:50.970Z,67.9
2016-03-14T13:03:51.035Z,67.71
2016-03-14T13:06:51.012Z,66.86
2016-03-14T13:07:50.827Z,67.52
2016-03-14T13:08:50.893Z,67.14
2016-03-14T13:09:50.926Z,66.47
2016-03-14T13:10:50.898Z,67.9
2016-03-14T13:11:50.964Z,66.19
2016-03-14T13:12:50.888Z,65.84
2016-03-14T13:13:50.844Z,65.66
2016-03-14T13:14:51.252Z,65.66
2016-03-14T13:15:50.942Z,64.68
2016-03-14T13:16:50.836Z,65.44
2016-03-14T13:17:50.792Z,65.72
2016-03-14T13:18:50.997Z,66.95
2016-03-14T13:19:50.797Z,66.67
2016-03-14T13:20:50.752Z,66.28
2016-03-14T13:21:50.755Z,66.86
2016-03-14T13:22:51.618Z,66.67
2016-03-14T13:23:50.854Z,64.87
2016-03-14T13:24:50.764Z,66.47
2016-03-14T13:26:50.722Z,66.67
2016-03-14T13:27:50.990Z,67.05
2016-03-14T13:28:50.697Z,66.19
2016-03-14T13:29:50.684Z,66
2016-03-14T13:30:50.686Z,65.91
2016-03-14T13:31:51.298Z,65.81
2016-03-14T13:32:50.660Z,65.81
2016-03-14T13:33:50.616Z,65.06
2016-03-14T13:34:50.604Z,63.82
2016-03-14T13:35:50.590Z,64.39
2016-03-14T13:36:50.562Z,65.34
2016-03-14T13:37:50.595Z,64.68
2016-03-14T13:38:50.786Z,64.39
2016-03-14T13:39:50.695Z,65.34
2016-03-14T13:40:50.572Z,64.68
2016-03-14T13:41:50.560Z,66
2016-03-14T13:43:50.753Z,66.67
2016-03-14T13:44:50.552Z,66
2016-03-14T13:45:50.555Z,66
2016-03-14T13:46:50.605Z,67.52
2016-03-14T13:47:50.482Z,66.86
2016-03-14T13:48:50.469Z,65.15
2016-03-14T13:49:50.456Z,65.06
2016-03-14T13:50:50.444Z,65.53
2016-03-14T13:51:50.430Z,65.72
2016-03-14T13:52:50.480Z,65.06
2016-03-14T13:53:50.466Z,65.44
2016-03-14T13:54:50.627Z,66.28
2016-03-14T13:55:58.707Z,66.19
2016-03-14T13:56:50.381Z,65.81
2016-03-14T13:57:50.321Z,66.28
2016-03-14T13:58:50.371Z,65.91
2016-03-14T13:59:50.374Z,66
2016-03-14T14:00:50.298Z,66.09
2016-03-14T14:01:50.301Z,66.47
2016-03-14T14:02:50.334Z,65.81
2016-03-14T14:03:50.400Z,65.06
2016-03-14T14:04:50.262Z,64.3
2016-03-14T14:05:50.281Z,64.96
2016-03-14T14:06:50.242Z,65.25
2016-03-14T14:07:51.353Z,65.06
2016-03-14T14:08:50.277Z,64.49
2016-03-14T14:09:50.217Z,64.96
2016-03-14T14:10:50.220Z,66.47
2016-03-14T14:11:50.208Z,66.28
2016-03-14T14:12:50.195Z,66.09
2016-03-14T14:13:50.198Z,65.72
2016-03-14T14:14:50.169Z,67.71
2016-03-14T14:15:50.172Z,67.24
2016-03-14T14:16:50.127Z,65.53
2016-03-14T14:17:50.208Z,66.86
2016-03-14T14:18:50.117Z,66.32
2016-03-14T14:20:50.122Z,64.9
2016-03-14T14:21:50.063Z,65.66
2016-03-14T14:22:50.925Z,65.56
2016-03-14T14:23:50.162Z,64.23
2016-03-14T14:24:50.024Z,64.52
2016-03-14T14:25:50.058Z,63.2
2016-03-14T14:26:50.045Z,63.01
2016-03-14T14:27:50.048Z,62.24
2016-03-14T14:28:50.003Z,62.53
2016-03-14T14:29:50.006Z,63.2
2016-03-14T14:30:50.009Z,63.01
2016-03-14T14:31:49.965Z,63.67
2016-03-14T14:32:49.952Z,64.23
2016-03-14T14:33:50.079Z,62.62
2016-03-14T14:34:49.957Z,62.91
2016-03-14T14:35:49.928Z,63.95
2016-03-14T14:36:49.931Z,65.37
2016-03-14T14:37:49.871Z,65.28
2016-03-14T14:38:49.999Z,63.76
2016-03-14T14:39:50.268Z,63.67
2016-03-14T14:40:49.942Z,64.52
2016-03-14T14:41:49.914Z,64.01
2016-03-14T14:42:49.838Z,65.66
2016-03-14T14:43:49.809Z,66.41
2016-03-14T14:44:49.844Z,65.47
2016-03-14T14:46:49.942Z,65.28
2016-03-14T14:47:49.788Z,64.14
2016-03-14T14:48:49.823Z,63.57
2016-03-14T14:49:49.778Z,63.67
2016-03-14T14:50:49.781Z,63.85
2016-03-14T14:51:49.816Z,63.35
2016-03-14T14:52:50.490Z,63.07
2016-03-14T14:53:57.758Z,63.2
2016-03-14T14:54:50.605Z,62.5
2016-03-14T14:55:49.716Z,63.92
2016-03-14T14:56:49.829Z,64.11
2016-03-14T14:57:49.690Z,64.58
2016-03-14T14:58:49.677Z,63.82
2016-03-14T14:59:49.634Z,64.11
2016-03-14T15:00:49.621Z,65.06
2016-03-14T15:01:49.608Z,64.33
2016-03-14T15:02:49.673Z,64.11
2016-03-14T15:03:49.644Z,65.19
2016-03-14T15:04:49.616Z,64.42
2016-03-14T15:05:49.587Z,64.33
2016-03-14T15:06:49.543Z,64.42
2016-03-14T15:07:49.561Z,64.14
2016-03-14T15:08:49.517Z,62.82
2016-03-14T15:09:49.536Z,63.57
2016-03-14T15:10:49.554Z,64.04
2016-03-14T15:11:56.322Z,62.5
2016-03-14T15:12:49.497Z,62.31
2016-03-14T15:13:49.859Z,62.59
2016-03-14T15:14:49.580Z,63.07
2016-03-14T15:15:49.645Z,62.69
2016-03-14T15:16:49.695Z,62.4
2016-03-14T15:17:49.463Z,62.88
2016-03-14T15:18:49.435Z,62.88
2016-03-14T15:20:49.549Z,63.85
2016-03-14T15:21:49.443Z,63.76
2016-03-14T15:22:49.508Z,62.62
2016-03-14T15:23:49.385Z,62.15
2016-03-14T15:24:49.466Z,61.96
2016-03-14T15:25:49.438Z,62.97
2016-03-14T15:26:49.347Z,64.11
2016-03-14T15:27:49.380Z,64.49
2016-03-14T15:28:49.446Z,63.85
2016-03-14T15:29:49.323Z,63.92
2016-03-14T15:30:49.530Z,63.95
2016-03-14T15:31:49.360Z,65
2016-03-14T15:32:50.723Z,64.04
2016-03-14T15:33:49.272Z,64.33
2016-03-14T15:34:49.259Z,61.87
2016-03-14T15:35:49.309Z,61.96
2016-03-14T15:37:49.251Z,62.15
2016-03-14T15:39:49.178Z,62.62
2016-03-14T15:40:49.197Z,62.78
2016-03-14T15:41:49.200Z,61.96
2016-03-14T15:42:49.234Z,61.96
2016-03-14T15:43:49.409Z,63.01
2016-03-14T15:44:49.208Z,62.05
2016-03-14T15:45:49.179Z,62.69
2016-03-14T15:46:49.150Z,62.72
2016-03-14T15:47:49.169Z,61.83
2016-03-14T15:48:49.109Z,62.12
2016-03-14T15:49:49.211Z,62.62
2016-03-14T15:50:49.167Z,62.82
2016-03-14T15:51:51.857Z,62.43
2016-03-14T15:52:49.063Z,62.24
2016-03-14T15:53:49.066Z,61.93
2016-03-14T15:54:49.068Z,61.02
2016-03-14T15:55:49.054Z,61.49
2016-03-14T15:57:49.029Z,61.68
2016-03-14T15:58:49.032Z,61.08
2016-03-14T16:00:48.960Z,62.5
2016-03-14T16:01:48.946Z,62.12
2016-03-14T16:02:48.824Z,61.93
2016-03-14T16:03:48.967Z,62.59
2016-03-14T16:04:48.923Z,61.83
2016-03-14T16:05:48.926Z,61.65
2016-03-14T16:06:49.209Z,61.55
2016-03-14T16:07:48.915Z,61.93
2016-03-14T16:08:48.871Z,62.02
2016-03-14T16:09:48.843Z,62.88
2016-03-14T16:10:48.845Z,62.59
2016-03-14T16:11:48.864Z,63.16
2016-03-14T16:12:49.397Z,62.97
2016-03-14T16:13:48.854Z,62.69
2016-03-14T16:14:48.856Z,62.69
2016-03-14T16:15:48.828Z,62.78
2016-03-14T16:16:48.830Z,62.59
2016-03-14T16:17:48.770Z,62.78
2016-03-14T16:18:48.975Z,62.88
2016-03-14T16:19:48.745Z,62.69
2016-03-14T16:20:48.731Z,62.59
2016-03-14T16:21:51.516Z,62.5
2016-03-14T16:22:48.691Z,62.69
2016-03-14T16:23:48.818Z,62.31
2016-03-14T16:24:48.664Z,62.59
2016-03-14T16:25:48.714Z,62.88
2016-03-14T16:26:56.529Z,63.73
2016-03-14T16:27:48.750Z,63.64
2016-03-14T16:28:48.643Z,63.54
2016-03-14T16:29:48.662Z,64.11
2016-03-14T16:30:48.633Z,64.39
2016-03-14T16:31:48.871Z,65.06
2016-03-14T16:32:48.670Z,65.06
2016-03-14T16:33:48.599Z,65.12
2016-03-14T16:34:48.540Z,65.88
2016-03-14T16:35:48.620Z,65.88
2016-03-14T16:36:48.482Z,66.06
2016-03-14T16:37:48.673Z,66.82
2016-03-14T16:38:48.567Z,66.92
2016-03-14T16:39:48.522Z,66.92
2016-03-14T16:40:48.525Z,67.68
2016-03-14T16:41:48.620Z,67.39
2016-03-14T16:42:48.592Z,67.96
2016-03-14T16:43:48.486Z,68.24
2016-03-14T16:44:48.458Z,68.24
2016-03-14T16:45:48.460Z,68.15
2016-03-14T16:46:48.556Z,68.24
2016-03-14T16:47:48.466Z,68.71
2016-03-14T16:48:48.421Z,69
2016-03-14T16:49:48.424Z,69.19
2016-03-14T16:50:48.442Z,69.28
2016-03-14T16:51:48.616Z,69.85
2016-03-14T16:53:48.372Z,69.47
2016-03-14T16:54:48.499Z,70.04
2016-03-14T16:55:48.362Z,69.76
2016-03-14T16:56:48.333Z,69.57
2016-03-14T16:57:49.304Z,69.95
2016-03-14T16:58:48.324Z,70.04
2016-03-14T16:59:48.310Z,70.14
2016-03-14T17:00:48.282Z,70.04
2016-03-14T17:01:48.254Z,69.66
2016-03-14T17:02:48.257Z,69.76
2016-03-14T17:03:48.478Z,70.32
2016-03-14T17:04:48.263Z,71.14
2016-03-14T17:05:48.186Z,70.95
2016-03-14T17:06:48.237Z,70.95
2016-03-14T17:08:48.164Z,71.14
2016-03-14T17:09:48.167Z,71.14
2016-03-14T17:10:48.139Z,71.33
2016-03-14T17:11:48.142Z,71.23
2016-03-14T17:12:48.144Z,71.33
2016-03-14T17:13:48.100Z,71.42
2016-03-14T17:14:48.119Z,71.99
2016-03-14T17:16:48.093Z,71.71
2016-03-14T17:17:50.987Z,71.9
2016-03-14T17:18:48.021Z,72.66
2016-03-14T17:19:48.273Z,72.75
2016-03-14T17:20:48.104Z,72.85
2016-03-14T17:21:47.763Z,72.94
2016-03-14T17:22:48.000Z,73.03
2016-03-14T17:23:48.003Z,72.85
2016-03-14T17:24:48.068Z,73.22
2016-03-14T17:25:47.945Z,73.41
2016-03-14T17:26:47.948Z,73.6
2016-03-14T17:27:47.936Z,73.41
2016-03-14T17:28:48.500Z,73.69
2016-03-14T22:43:45.353Z,88.46
2016-03-14T22:44:45.246Z,88.6
2016-03-14T22:45:45.233Z,88.79
2016-03-14T22:46:45.205Z,88.56
2016-03-14T22:47:45.193Z,88.37
2016-03-14T22:48:45.179Z,88.51
2016-03-14T22:49:45.166Z,88.23
2016-03-14T22:50:45.153Z,88.42
2016-03-14T22:51:45.140Z,88.23
2016-03-14T22:52:45.159Z,88.56
2016-03-14T22:53:45.115Z,88.56
2016-03-14T22:54:45.101Z,88.56
2016-03-14T22:55:45.089Z,88.46
2016-03-14T22:56:45.061Z,88.09
2016-03-14T22:57:45.126Z,87.8
2016-03-14T22:58:45.049Z,87.62
2016-03-14T22:59:45.022Z,88.13
2016-03-14T23:00:45.009Z,88.09
2016-03-14T23:01:44.995Z,88.46
2016-03-14T23:02:44.983Z,88.6
2016-03-14T23:03:45.219Z,88.56
2016-03-14T23:04:44.941Z,88.46
2016-03-14T23:05:44.959Z,88.37
2016-03-14T23:06:44.900Z,88.28
2016-03-14T23:07:44.902Z,88.18
2016-03-14T23:08:44.874Z,88.09
2016-03-14T23:09:45.095Z,88.56
2016-03-14T23:10:44.848Z,88.7
2016-03-14T23:11:44.850Z,88.51
2016-03-14T23:12:44.838Z,88.09
2016-03-14T23:13:44.825Z,88.6
2016-03-14T23:14:44.780Z,88.42
2016-03-14T23:16:44.770Z,88.6
2016-03-14T23:17:44.757Z,88.32
2016-03-14T23:18:44.712Z,88.6
2016-03-14T23:19:44.716Z,88.32
2016-03-14T23:20:44.703Z,88.6
2016-03-14T23:21:44.690Z,88.56
